createdAt,value
2023-05-05T00:02:45.297Z,100861.09
2023-05-05T00:05:55.487Z,100858.03
2023-05-05T00:08:58.918Z,100859.66
2023-05-05T00:12:02.287Z,100859.97
2023-05-05T00:15:05.970Z,100854.16
2023-05-05T00:18:09.698Z,100856.94
2023-05-05T00:21:13.625Z,100854.16
2023-05-05T00:24:17.027Z,100857.41
2023-05-05T00:27:20.215Z,100857.03
2023-05-05T00:30:23.607Z,100854.41
2023-05-05T00:33:27.490Z,100856.47
2023-05-05T00:36:30.671Z,100850.63
2023-05-05T00:39:34.553Z,100854.50
2023-05-05T00:42:51.026Z,100851.47
2023-05-05T00:46:01.371Z,100854.16
2023-05-05T00:49:05.975Z,100856.59
2023-05-05T00:52:10.318Z,100855.47
2023-05-05T00:55:14.042Z,100844.22
2023-05-05T00:58:18.452Z,100850.09
2023-05-05T01:01:22.637Z,100852.03
2023-05-05T01:04:29.016Z,100846.19
2023-05-05T01:07:40.799Z,100853.53
2023-05-05T01:10:50.685Z,100847.81
2023-05-05T01:14:13.803Z,100854.03
2023-05-05T01:17:19.536Z,100850.56
2023-05-05T01:20:29.571Z,100849.00
2023-05-05T01:24:13.795Z,100845.94
2023-05-05T01:27:19.607Z,100844.75
2023-05-05T01:30:41.181Z,100845.94
2023-05-05T01:33:48.402Z,100847.09
2023-05-05T01:36:58.563Z,100843.59
2023-05-05T01:40:07.024Z,100847.88
2023-05-05T01:43:13.751Z,100845.94
2023-05-05T01:46:19.421Z,100840.50
2023-05-05T01:49:23.791Z,100842.88
2023-05-05T01:52:28.211Z,100846.38
2023-05-05T01:55:33.569Z,100851.00
2023-05-05T01:58:38.205Z,100842.91
2023-05-05T02:01:44.879Z,100848.72
2023-05-05T02:04:51.981Z,100844.09
2023-05-05T02:07:58.231Z,100850.69
2023-05-05T02:11:01.644Z,100856.09
2023-05-05T02:14:07.442Z,100858.09
2023-05-05T02:17:12.336Z,100852.28
2023-05-05T02:20:17.229Z,100856.53
2023-05-05T02:23:20.545Z,100854.22
2023-05-05T02:26:24.956Z,100861.97
2023-05-05T02:29:34.205Z,100850.75
2023-05-05T02:32:45.391Z,100851.91
2023-05-05T02:35:52.136Z,100845.31
2023-05-05T02:39:03.536Z,100853.44
2023-05-05T02:42:15.828Z,100841.06
2023-05-05T02:45:22.406Z,100837.97
2023-05-05T02:48:26.866Z,100833.31
2023-05-05T02:51:31.115Z,100837.97
2023-05-05T02:54:38.072Z,100830.22
2023-05-05T02:58:02.490Z,100825.94
2023-05-05T03:01:29.393Z,100830.59
2023-05-05T03:04:39.971Z,100839.88
2023-05-05T03:07:54.002Z,100840.25
2023-05-05T03:11:05.188Z,100837.59
2023-05-05T03:14:13.405Z,100835.63
2023-05-05T03:17:19.883Z,100843.41
2023-05-05T03:20:23.599Z,100835.28
2023-05-05T03:23:27.284Z,100842.59
2023-05-05T03:26:34.364Z,100838.75
2023-05-05T03:29:37.518Z,100843.78
2023-05-05T03:32:44.840Z,100843.38
2023-05-05T03:35:47.898Z,100844.91
2023-05-05T03:38:53.995Z,100839.88
2023-05-05T03:42:36.797Z,100837.94
2023-05-05T03:45:40.179Z,100848.00
2023-05-05T03:48:43.828Z,100849.94
2023-05-05T03:51:47.836Z,100848.75
2023-05-05T03:54:51.507Z,100839.84
2023-05-05T03:57:54.705Z,100845.25
2023-05-05T04:00:57.770Z,100844.44
2023-05-05T04:04:02.514Z,100847.13
2023-05-05T04:07:06.190Z,100858.72
2023-05-05T04:10:10.167Z,100856.00
2023-05-05T04:13:13.298Z,100865.66
2023-05-05T04:16:16.855Z,100862.13
2023-05-05T04:19:20.244Z,100860.50
2023-05-05T04:22:23.478Z,100858.91
2023-05-05T04:25:27.009Z,100868.56
2023-05-05T04:28:30.352Z,100877.41
2023-05-05T04:31:33.639Z,100868.41
2023-05-05T04:34:37.437Z,100875.63
2023-05-05T04:37:41.319Z,100863.91
2023-05-05T04:40:50.806Z,100866.53
2023-05-05T04:43:55.690Z,100872.63
2023-05-05T04:47:00.622Z,100865.81
2023-05-05T04:50:04.312Z,100869.78
2023-05-05T04:53:07.868Z,100875.38
2023-05-05T04:56:11.240Z,100876.69
2023-05-05T04:59:15.515Z,100876.59
2023-05-05T05:02:18.897Z,100877.94
2023-05-05T05:05:22.172Z,100881.94
2023-05-05T05:08:25.442Z,100880.50
2023-05-05T05:11:28.651Z,100881.28
2023-05-05T05:14:39.494Z,100887.66
2023-05-05T05:17:42.824Z,100877.16
2023-05-05T05:20:46.512Z,100881.88
2023-05-05T05:23:50.399Z,100886.50
2023-05-05T05:26:53.573Z,100887.91
2023-05-05T05:29:57.448Z,100889.25
2023-05-05T05:33:02.474Z,100885.81
2023-05-05T05:36:06.293Z,100897.06
2023-05-05T05:39:09.433Z,100890.16
2023-05-05T05:42:12.906Z,100890.28
2023-05-05T05:45:16.875Z,100891.88
2023-05-05T05:48:22.374Z,100884.03
2023-05-05T05:51:26.460Z,100888.34
2023-05-05T05:54:30.158Z,100884.84
2023-05-05T05:57:33.440Z,100885.78
2023-05-05T06:00:40.103Z,100890.88
2023-05-05T06:03:45.861Z,100895.66
2023-05-05T06:06:49.360Z,100900.81
2023-05-05T06:09:57.395Z,100891.44
2023-05-05T06:13:00.915Z,100893.38
2023-05-05T06:16:06.905Z,100894.47
2023-05-05T06:19:10.842Z,100895.72
2023-05-05T06:22:14.610Z,100894.06
2023-05-05T06:25:18.074Z,100904.81
2023-05-05T06:28:22.029Z,100901.28
2023-05-05T06:31:25.312Z,100901.03
2023-05-05T06:34:28.976Z,100893.09
2023-05-05T06:37:32.175Z,100897.00
2023-05-05T06:40:36.048Z,100890.53
2023-05-05T06:43:39.885Z,100893.44
2023-05-05T06:46:49.133Z,100892.00
2023-05-05T06:49:52.493Z,100883.63
2023-05-05T06:52:56.926Z,100886.53
2023-05-05T06:56:00.388Z,100886.31
2023-05-05T06:59:03.584Z,100886.44
2023-05-05T07:02:07.112Z,100887.16
2023-05-05T07:05:10.705Z,100889.06
2023-05-05T07:08:13.833Z,100890.56
2023-05-05T07:11:17.298Z,100890.03
2023-05-05T07:14:22.099Z,100893.69
2023-05-05T07:17:27.653Z,100890.97
2023-05-05T07:20:30.997Z,100893.69
2023-05-05T07:23:34.754Z,100892.84
2023-05-05T07:26:38.592Z,100891.38
2023-05-05T07:29:41.669Z,100889.06
2023-05-05T07:32:47.055Z,100885.88
2023-05-05T07:35:50.227Z,100882.38
2023-05-05T07:38:53.660Z,100891.19
2023-05-05T07:41:57.447Z,100893.63
2023-05-05T07:45:00.858Z,100889.97
2023-05-05T07:48:04.163Z,100892.16
2023-05-05T07:51:07.222Z,100887.69
2023-05-05T07:54:12.341Z,100885.88
2023-05-05T07:57:15.733Z,100885.09
2023-05-05T08:00:19.709Z,100890.91
2023-05-05T08:03:24.905Z,100887.41
2023-05-05T08:06:29.398Z,100889.53
2023-05-05T08:09:32.534Z,100891.69
2023-05-05T08:12:36.401Z,100883.28
2023-05-05T08:15:39.747Z,100880.81
2023-05-05T08:18:42.878Z,100887.25
2023-05-05T08:21:47.615Z,100880.63
2023-05-05T08:24:51.990Z,100884.19
2023-05-05T08:27:55.138Z,100876.97
2023-05-05T08:31:07.146Z,100871.13
2023-05-05T08:34:13.910Z,100881.50
2023-05-05T08:37:19.064Z,100878.59
2023-05-05T08:40:29.459Z,100877.19
2023-05-05T08:43:35.956Z,100873.81
2023-05-05T08:46:39.326Z,100877.00
2023-05-05T08:49:46.988Z,100873.47
2023-05-05T08:52:57.561Z,100877.03
2023-05-05T08:56:03.033Z,100869.50
2023-05-05T08:59:07.034Z,100858.91
2023-05-05T09:02:11.228Z,100865.69
2023-05-05T09:05:15.369Z,100862.34
2023-05-05T09:08:45.376Z,100857.75
2023-05-05T09:11:48.769Z,100861.59
2023-05-05T09:14:52.197Z,100853.72
2023-05-05T09:17:58.476Z,100857.41
2023-05-05T09:21:27.843Z,100851.47
2023-05-05T09:24:32.002Z,100854.19
2023-05-05T09:27:40.855Z,100850.16
2023-05-05T09:30:47.602Z,100847.50
2023-05-05T09:33:51.626Z,100845.78
2023-05-05T09:36:54.966Z,100845.06
2023-05-05T09:40:01.219Z,100841.31
2023-05-05T09:43:04.529Z,100845.00
2023-05-05T09:46:08.524Z,100843.59
2023-05-05T09:49:19.774Z,100842.00
2023-05-05T09:52:23.389Z,100839.53
2023-05-05T09:55:26.736Z,100835.94
2023-05-05T09:58:31.633Z,100834.63
2023-05-05T10:01:35.442Z,100835.13
2023-05-05T10:04:39.639Z,100835.03
2023-05-05T10:07:47.959Z,100836.66
2023-05-05T10:11:00.703Z,100830.34
2023-05-05T10:14:06.810Z,100827.88
2023-05-05T10:17:11.038Z,100825.28
2023-05-05T10:20:16.030Z,100820.63
2023-05-05T10:23:21.602Z,100821.97
2023-05-05T10:26:26.868Z,100806.31
2023-05-05T10:29:48.736Z,100807.88
2023-05-05T10:33:07.883Z,100810.88
2023-05-05T10:36:16.970Z,100811.00
2023-05-05T10:39:21.330Z,100803.03
2023-05-05T10:42:25.170Z,100794.72
2023-05-05T10:45:28.851Z,100801.84
2023-05-05T10:48:58.005Z,100802.53
2023-05-05T10:52:19.814Z,100788.28
2023-05-05T10:55:36.070Z,100782.47
2023-05-05T10:58:58.200Z,100780.59
2023-05-05T11:02:25.032Z,100769.84
2023-05-05T11:05:28.430Z,100764.78
2023-05-05T11:08:42.744Z,100764.47
2023-05-05T11:12:05.696Z,100769.16
2023-05-05T11:15:26.906Z,100753.66
2023-05-05T11:18:35.882Z,100757.47
2023-05-05T11:22:02.228Z,100750.78
2023-05-05T11:25:41.047Z,100750.91
2023-05-05T11:28:57.725Z,100744.28
2023-05-05T11:32:16.434Z,100744.78
2023-05-05T11:35:20.108Z,100742.56
2023-05-05T11:39:13.353Z,100731.19
2023-05-05T11:42:24.750Z,100725.00
2023-05-05T11:45:28.063Z,100724.94
2023-05-05T11:48:31.684Z,100728.19
2023-05-05T11:51:35.225Z,100731.78
2023-05-05T11:54:41.820Z,100727.28
2023-05-05T11:57:45.128Z,100725.03
2023-05-05T12:00:48.514Z,100721.72
2023-05-05T12:03:52.011Z,100713.91
2023-05-05T12:06:55.812Z,100717.28
2023-05-05T12:10:00.090Z,100718.75
2023-05-05T12:13:21.314Z,100707.75
2023-05-05T12:16:24.522Z,100711.91
2023-05-05T12:19:33.434Z,100708.13
2023-05-05T12:22:36.570Z,100702.22
2023-05-05T12:25:40.574Z,100695.69
2023-05-05T12:28:48.282Z,100701.69
2023-05-05T12:31:51.896Z,100699.50
2023-05-05T12:34:57.756Z,100697.25
2023-05-05T12:38:00.981Z,100697.88
2023-05-05T12:41:04.028Z,100688.94
2023-05-05T12:44:07.199Z,100692.84
2023-05-05T12:47:12.037Z,100693.66
2023-05-05T12:50:15.245Z,100687.72
2023-05-05T12:53:25.718Z,100677.00
2023-05-05T12:56:34.308Z,100680.38
2023-05-05T12:59:37.889Z,100677.03
2023-05-05T13:02:41.462Z,100663.72
2023-05-05T13:05:45.063Z,100664.66
2023-05-05T13:08:48.517Z,100654.84
2023-05-05T13:11:52.689Z,100655.34
2023-05-05T13:14:55.979Z,100645.41
2023-05-05T13:18:01.353Z,100637.88
2023-05-05T13:21:05.217Z,100639.38
2023-05-05T13:24:25.288Z,100635.69
2023-05-05T13:27:32.360Z,100632.34
2023-05-05T13:30:35.429Z,100629.72
2023-05-05T13:33:38.589Z,100633.63
2023-05-05T13:36:42.072Z,100623.31
2023-05-05T13:39:45.320Z,100623.09
2023-05-05T13:42:48.706Z,100622.44
2023-05-05T13:45:55.969Z,100619.59
2023-05-05T13:49:03.660Z,100615.69
2023-05-05T13:52:06.739Z,100605.44
2023-05-05T13:55:10.218Z,100598.78
2023-05-05T13:58:13.551Z,100597.69
2023-05-05T14:01:16.486Z,100608.59
2023-05-05T14:04:19.607Z,100594.81
2023-05-05T14:07:22.994Z,100603.41
2023-05-05T14:10:29.881Z,100599.94
2023-05-05T14:13:32.873Z,100598.16
2023-05-05T14:16:36.397Z,100597.16
2023-05-05T14:19:39.439Z,100591.88
2023-05-05T14:22:42.694Z,100598.41
2023-05-05T14:25:45.565Z,100594.03
2023-05-05T14:28:49.851Z,100590.75
2023-05-05T14:31:53.662Z,100594.44
2023-05-05T14:34:57.263Z,100579.28
2023-05-05T14:38:00.462Z,100579.28
2023-05-05T14:41:03.883Z,100576.31
2023-05-05T14:44:07.186Z,100579.19
2023-05-05T14:47:10.249Z,100575.59
2023-05-05T14:50:14.348Z,100572.13
2023-05-05T14:53:19.257Z,100575.19
2023-05-05T14:56:22.917Z,100576.91
2023-05-05T14:59:26.483Z,100578.78
2023-05-05T15:02:30.009Z,100576.03
2023-05-05T15:05:35.754Z,100579.22
2023-05-05T15:08:41.857Z,100576.16
2023-05-05T15:11:45.681Z,100565.78
2023-05-05T15:14:49.341Z,100571.47
2023-05-05T15:17:52.609Z,100570.63
2023-05-05T15:20:55.704Z,100563.28
2023-05-05T15:23:59.204Z,100562.84
2023-05-05T15:27:03.073Z,100564.91
2023-05-05T15:30:07.290Z,100565.25
2023-05-05T15:33:10.601Z,100572.44
2023-05-05T15:36:13.660Z,100562.69
2023-05-05T15:39:17.545Z,100567.00
2023-05-05T15:42:20.885Z,100546.69
2023-05-05T15:45:23.725Z,100552.03
2023-05-05T15:48:27.043Z,100547.66
2023-05-05T15:51:30.087Z,100550.50
2023-05-05T15:54:33.210Z,100553.56
2023-05-05T15:57:36.231Z,100552.50
2023-05-05T16:00:41.747Z,100541.88
2023-05-05T16:03:45.737Z,100540.22
2023-05-05T16:06:48.952Z,100542.91
2023-05-05T16:09:52.622Z,100538.63
2023-05-05T16:12:56.586Z,100532.44
2023-05-05T16:15:59.835Z,100535.28
2023-05-05T16:19:02.932Z,100526.50
2023-05-05T16:22:06.532Z,100527.19
2023-05-05T16:25:10.327Z,100523.84
2023-05-05T16:28:13.866Z,100525.53
2023-05-05T16:31:16.963Z,100519.34
2023-05-05T16:34:20.267Z,100519.16
2023-05-05T16:37:23.192Z,100521.63
2023-05-05T16:40:26.205Z,100527.47
2023-05-05T16:43:29.293Z,100518.88
2023-05-05T16:46:35.589Z,100518.97
2023-05-05T16:49:38.702Z,100515.09
2023-05-05T16:52:41.923Z,100519.38
2023-05-05T16:55:45.047Z,100522.41
2023-05-05T16:58:47.917Z,100515.00
2023-05-05T17:01:50.886Z,100520.16
2023-05-05T17:04:53.935Z,100515.19
2023-05-05T17:07:56.849Z,100522.03
2023-05-05T17:10:59.779Z,100519.19
2023-05-05T17:14:02.956Z,100523.38
2023-05-05T17:17:07.168Z,100520.41
2023-05-05T17:20:11.382Z,100523.47
2023-05-05T17:23:14.450Z,100519.28
2023-05-05T17:26:17.413Z,100527.00
2023-05-05T17:29:21.751Z,100529.53
2023-05-05T17:32:25.269Z,100524.66
2023-05-05T17:35:28.340Z,100522.25
2023-05-05T17:38:31.284Z,100527.66
2023-05-05T17:41:34.378Z,100523.44
2023-05-05T17:44:37.396Z,100529.75
2023-05-05T17:47:40.380Z,100530.00
2023-05-05T17:50:43.620Z,100522.97
2023-05-05T17:53:46.679Z,100531.75
2023-05-05T17:56:49.926Z,100535.16
2023-05-05T17:59:53.823Z,100535.34
2023-05-05T18:02:57.043Z,100532.47
2023-05-05T18:06:00.149Z,100533.13
2023-05-05T18:09:03.455Z,100537.75
2023-05-05T18:12:07.936Z,100536.84
2023-05-05T18:15:11.651Z,100530.88
2023-05-05T18:18:14.988Z,100531.66
2023-05-05T18:21:17.949Z,100535.47
2023-05-05T18:24:21.359Z,100532.09
2023-05-05T18:27:26.615Z,100534.69
2023-05-05T18:30:29.890Z,100546.09
2023-05-05T18:33:33.038Z,100557.47
2023-05-05T18:36:36.340Z,100558.56
2023-05-05T18:39:40.169Z,100553.63
2023-05-05T18:42:44.190Z,100555.13
2023-05-05T18:45:47.163Z,100561.66
2023-05-05T18:48:50.712Z,100558.28
2023-05-05T18:51:54.021Z,100566.66
2023-05-05T18:54:57.179Z,100564.44
2023-05-05T18:58:00.454Z,100567.03
2023-05-05T19:01:03.737Z,100563.34
2023-05-05T19:04:12.838Z,100566.16
2023-05-05T19:07:33.743Z,100564.88
2023-05-05T19:10:38.309Z,100571.09
2023-05-05T19:13:41.775Z,100568.91
2023-05-05T19:16:45.433Z,100571.78
2023-05-05T19:19:49.055Z,100577.16
2023-05-05T19:22:52.646Z,100575.44
2023-05-05T19:25:56.121Z,100571.75
2023-05-05T19:28:59.588Z,100576.84
2023-05-05T19:32:02.770Z,100578.16
2023-05-05T19:35:06.883Z,100574.66
2023-05-05T19:38:10.469Z,100577.66
2023-05-05T19:41:13.854Z,100586.53
2023-05-05T19:44:17.034Z,100578.00
2023-05-05T19:47:20.746Z,100587.03
2023-05-05T19:50:24.466Z,100588.13
2023-05-05T19:53:27.864Z,100589.34
2023-05-05T19:56:31.088Z,100589.44
2023-05-05T19:59:34.114Z,100575.41
2023-05-05T20:02:39.922Z,100579.91
2023-05-05T20:05:42.935Z,100578.19
2023-05-05T20:08:46.320Z,100576.59
2023-05-05T20:11:49.334Z,100571.69
2023-05-05T20:14:52.290Z,100571.03
2023-05-05T20:17:55.408Z,100572.69
2023-05-05T20:20:59.133Z,100573.56
2023-05-05T20:24:02.343Z,100575.50
2023-05-05T20:27:05.781Z,100570.16
2023-05-05T20:30:10.292Z,100565.66
2023-05-05T20:33:13.986Z,100566.28
2023-05-05T20:36:18.077Z,100563.25
2023-05-05T20:39:21.367Z,100563.13
2023-05-05T20:42:25.682Z,100564.00
2023-05-05T20:45:31.797Z,100566.41
2023-05-05T20:48:35.364Z,100565.16
2023-05-05T20:51:39.020Z,100556.31
2023-05-05T20:54:42.218Z,100562.09
2023-05-05T20:57:45.249Z,100557.47
2023-05-05T21:00:48.682Z,100558.69
2023-05-05T21:03:51.993Z,100552.50
2023-05-05T21:06:55.405Z,100546.38
2023-05-05T21:09:58.273Z,100548.16
2023-05-05T21:13:02.634Z,100557.56
2023-05-05T21:16:05.940Z,100554.59
2023-05-05T21:19:09.458Z,100548.00
2023-05-05T21:22:12.848Z,100547.78
2023-05-05T21:25:21.392Z,100544.03
2023-05-05T21:28:24.520Z,100529.69
2023-05-05T21:31:27.812Z,100527.81
2023-05-05T21:34:30.829Z,100530.03
2023-05-05T21:37:34.430Z,100528.66
2023-05-05T21:40:37.643Z,100525.69
2023-05-05T21:43:40.556Z,100528.00
2023-05-05T21:46:43.896Z,100521.44
2023-05-05T21:49:47.024Z,100518.81
2023-05-05T21:52:50.275Z,100524.84
2023-05-05T21:55:53.333Z,100522.56
2023-05-05T21:58:57.032Z,100518.81
2023-05-05T22:02:00.328Z,100517.38
2023-05-05T22:05:03.402Z,100521.16
2023-05-05T22:08:06.531Z,100527.19
2023-05-05T22:11:09.774Z,100526.16
2023-05-05T22:14:12.761Z,100529.44
2023-05-05T22:17:16.144Z,100521.66
2023-05-05T22:20:19.621Z,100535.56
2023-05-05T22:23:22.981Z,100534.88
2023-05-05T22:26:26.370Z,100530.19
2023-05-05T22:29:29.568Z,100533.34
2023-05-05T22:32:32.718Z,100533.50
2023-05-05T22:35:37.507Z,100535.22
2023-05-05T22:38:40.865Z,100520.78
2023-05-05T22:41:44.760Z,100527.38
2023-05-05T22:44:47.836Z,100526.31
2023-05-05T22:47:51.182Z,100528.88
2023-05-05T22:50:54.579Z,100538.25
2023-05-05T22:53:57.592Z,100535.69
2023-05-05T22:57:00.880Z,100539.81
2023-05-05T23:00:05.500Z,100533.06
2023-05-05T23:03:09.463Z,100537.75
2023-05-05T23:06:12.785Z,100532.44
2023-05-05T23:09:16.207Z,100536.94
2023-05-05T23:12:20.176Z,100538.13
2023-05-05T23:15:24.057Z,100538.41
2023-05-05T23:18:27.156Z,100536.84
2023-05-05T23:21:32.083Z,100536.84
2023-05-05T23:24:37.340Z,100534.22
2023-05-05T23:27:41.417Z,100533.50
2023-05-05T23:30:44.609Z,100527.63
2023-05-05T23:33:47.802Z,100530.34
2023-05-05T23:36:51.854Z,100524.56
2023-05-05T23:39:55.077Z,100520.22
2023-05-05T23:42:58.760Z,100525.81
2023-05-05T23:46:01.723Z,100523.00
2023-05-05T23:49:04.986Z,100520.38
2023-05-05T23:52:08.116Z,100527.72
2023-05-05T23:55:11.776Z,100530.03
2023-05-05T23:58:15.057Z,100526.09
